Nearby METAR Reports

 

KSJC - San Jose, California, USA
Distance from station: NE 9mi, 14km
Updated: Wed, 25-Apr-2018 6:53pm PDT
Few Clouds
Few Clouds
 Wind from WNW
Wind: WNW 14 mph , 22 km/h
Temperature: 63°F , 17°C
Dew Point: 52°F , 11°C
Humidity: 68%
Barometer: 30.01 inHg , 1016.3 hPa
Clouds: Few Clouds
Visibility: 9 miles , 14 km
Cloud details: Few Clouds 10000 ft
2018/04/26 01:53 KSJC 260153Z 30012KT 9SM FEW100 17/11 A3001 RMK AO2 SLP162 T01720106
KNUQ - Moffett Nas/Mtn, California, USA
Distance from station: N 9mi, 14km
Updated: Wed, 25-Apr-2018 6:56pm PDT
Clear
Clear
 Wind from N
Wind: N 14 mph , 22 km/h
Temperature: 61°F , 16°C
Dew Point: 52°F , 11°C
Humidity: 72%
Barometer: 30.02 inHg , 1016.6 hPa
Clouds: Clear
Visibility: 10 miles , 16 km
2018/04/26 01:56 KNUQ 260156Z 35012KT 10SM CLR 16/11 A3002 RMK AO2 SLP168 T01560106
 
KPAO - Palo Alto, California, USA
Distance from station: NNW 14mi, 23km
Updated: Wed, 25-Apr-2018 6:47pm PDT
Clear
Clear
 Wind from NNW
Wind: NNW 14 mph , 22 km/h
Barometer: 30.01 inHg , 1016.3 hPa
Clouds: Clear
Visibility: 10 miles , 16 km
2018/04/26 01:47 KPAO 260147Z 33012KT 10SM SKC A3001
KRHV - San Jose/Reid, California, USA
Distance from station: ENE 12mi, 19km
Updated: Wed, 25-Apr-2018 6:47pm PDT
Clear
Clear
 Wind from NW
Wind: NW 12 mph , 19 km/h
Temperature: 66°F , 19°C
Dew Point: 52°F , 11°C
Humidity: 60%
Barometer: 29.99 inHg , 1015.6 hPa
Clouds: Clear
Visibility: 6 miles , 10 km
2018/04/26 01:47 KRHV 260147Z 32010KT 6SM SKC 19/11 A2999
 
KOAK - Oakland, California, USA
Distance from station: NNW 31mi, 50km
Updated: Wed, 25-Apr-2018 6:53pm PDT
Few Clouds
Few Clouds
 Wind from WNW
Wind: WNW 17 mph , 28 km/h
Temperature: 57°F , 14°C
Dew Point: 46°F , 8°C
Humidity: 67%
Barometer: 30.03 inHg , 1016.9 hPa
Clouds: Few Clouds
Visibility: 10 miles , 16 km
Cloud details: Few Clouds 1500 ft
Few Clouds 20000 ft
2018/04/26 01:53 KOAK 260153Z 29015KT 10SM FEW015 FEW200 14/08 A3003 RMK AO2 SLP170 T01390083
KSQL - San Carlos Airpo, California, USA
Distance from station: NW 21mi, 34km
Updated: Wed, 25-Apr-2018 6:47pm PDT
Clear
Clear
 Wind from NW
Wind: NW 9 mph , 15 km/h
Temperature: 59°F , 15°C
Dew Point: 48°F , 9°C
Humidity: 68%
Barometer: 30.01 inHg , 1016.3 hPa
Clouds: Clear
Visibility: 10 miles , 16 km
2018/04/26 01:47 KSQL 260147Z 31008KT 10SM SKC 15/09 A3001
 
KSFO - San Francisco, California, USA
Distance from station: NW 30mi, 49km
Updated: Wed, 25-Apr-2018 6:56pm PDT
Few Clouds
Few Clouds
 Wind from W
Wind: W 15 mph , 24 km/h
Temperature: 57°F , 14°C
Dew Point: 46°F , 8°C
Humidity: 67%
Barometer: 30.03 inHg , 1016.9 hPa
Clouds: Few Clouds
Visibility: 10 miles , 16 km
Cloud details: Few Clouds 1500 ft
2018/04/26 01:56 KSFO 260156Z 28013KT 10SM FEW015 14/08 A3003 RMK AO2 SLP169 T01390078
KE16 - San Martin, California, USA
Distance from station: ESE 27mi, 43km
Updated: Wed, 25-Apr-2018 6:55pm PDT
Clear
Clear
 Wind from SE
Wind: SE 10 mph , 17 km/h
Temperature: 61°F , 16°C
Dew Point: 48°F , 9°C
Humidity: 63%
Barometer: 30.02 inHg , 1016.6 hPa
Clouds: Clear
Visibility: 10 miles , 16 km
2018/04/26 01:55 KE16 260155Z AUTO 13009KT 10SM CLR 16/09 A3002 RMK AO2
 
KWVI - Watsonville, California, USA
Distance from station: SSE 27mi, 44km
Updated: Wed, 25-Apr-2018 6:53pm PDT
Clear
Clear
 Wind from SW
Wind: SW 8 mph , 13 km/h
Temperature: 54°F , 12°C
Dew Point: 48°F , 9°C
Humidity: 82%
Barometer: 30.05 inHg , 1017.6 hPa
Clouds: Clear
Visibility: 8 miles , 13 km
2018/04/26 01:53 KWVI 260153Z AUTO 22007KT 8SM CLR 12/09 A3005 RMK AO2 SLP176 T01220089
KHAF - Half Moon Bay, California, USA
Distance from station: WNW 31mi, 50km
Updated: Wed, 25-Apr-2018 6:55pm PDT
Overcast
Overcast
 Wind from W
Wind: W 3 mph , 6 km/h
Temperature: 54°F , 12°C
Dew Point: 46°F , 8°C
Humidity: 77%
Barometer: 30.07 inHg , 1018.3 hPa
Clouds: Overcast
Visibility: 8 miles , 13 km
Cloud details: Overcast 1600 ft
2018/04/26 01:55 KHAF 260155Z AUTO 26003KT 8SM OVC016 12/08 A3007 RMK AO2
 
KHWD - Hayward, California, USA
Distance from station: N 28mi, 44km
Updated: Wed, 25-Apr-2018 6:54pm PDT
Clear
Clear
 Wind from WNW
Wind: WNW 14 mph , 22 km/h
Temperature: 57°F , 14°C
Dew Point: 45°F , 7°C
Humidity: 63%
Barometer: 30.03 inHg , 1016.9 hPa
Clouds: Clear
Visibility: 10 miles , 16 km
2018/04/26 01:54 KHWD 260154Z 30012KT 10SM CLR 14/07 A3003 RMK AO2 SLP178 T01440072
KLVK - Livermore, California, USA
Distance from station: NNE 31mi, 51km
Updated: Wed, 25-Apr-2018 6:53pm PDT
Clear
Clear
 Wind from WNW
Wind: WNW 15 mph , 24 km/h
Temperature: 63°F , 17°C
Dew Point: 50°F , 10°C
Humidity: 64%
Barometer: 29.98 inHg , 1015.2 hPa
Clouds: Clear
Visibility: 10 miles , 16 km
2018/04/26 01:53 KLVK 260153Z AUTO 29013KT 10SM CLR 17/10 A2998 RMK AO2 SLP151 T01720100